Seaguardian 12 Twin — SVA6420 — position and weather

sailwx.info

Track history (hours):
 
Tides and Currents Weather Stations Pressure Air Temp Water Temp Dewpoint Dewpoint Depression Visibility Wind Speed Wind Dir Waves Ship Positions

Seaguardian 12 Twin

Last reported at 2018-Jun-23 15:47 UTC. Time now 2018-Jul-17 15:10 UTC.
Position N 37°34' E 024°46'.
Warning: this ship's position is 23 days out of date.

Length 11 m; draft 1.8 m.

Type: Pollution control. MMSI: 239869100.

Date/timePositionNaut miles runAvg speedWind from/ knotsBaromVisibWave heightAir tempDewpointWater temp
2018-Jun-23 15:47N 37°34' E 024°46'1614.3
2018-Jun-23 14:41N 37°29' E 025°05'313.8
2018-Jun-23 14:30N 37°28' E 025°08'713.7
2018-Jun-23 14:00N 37°26' E 025°16'3 6.2
2018-Jun-23 13:30N 37°25' E 025°19'0 0.0
2018-Jun-23 09:24N 37°25' E 025°20'0 0.1
2018-Jun-23 09:00N 37°25' E 025°19'4 8.1
2018-Jun-23 08:30N 37°25' E 025°25'2 3.2
2018-Jun-23 08:00N 37°26' E 025°26'0 0.0
2018-Jun-23 07:29N 37°26' E 025°26'0 0.0
2018-Jun-23 06:59N 37°26' E 025°26'0 0.0
2018-Jun-23 06:30N 37°26' E 025°26'0 0.0
2018-Jun-23 05:59N 37°26' E 025°26'0 0.0
2018-Jun-23 05:29N 37°26' E 025°26'0 0.0
2018-Jun-23 05:00N 37°26' E 025°26'0 0.0
2018-Jun-23 04:30N 37°26' E 025°26'1 1.0
2018-Jun-23 04:00N 37°26' E 025°25'4 7.7
2018-Jun-23 03:30N 37°24' E 025°21'2 0.2
2018-Jun-22 16:35N 37°25' E 025°20'0 0.1
2018-Jun-22 16:30N 37°25' E 025°20'5 9.1
2018-Jun-22 16:00N 37°26' E 025°25'1 1.6
2018-Jun-22 15:26N 37°26' E 025°26'0 0.0
2018-Jun-22 14:57N 37°26' E 025°26'0 0.0
2018-Jun-22 14:29N 37°26' E 025°26'0 0.0
2018-Jun-22 13:53N 37°26' E 025°26'0 0.0
2018-Jun-22 13:28N 37°26' E 025°26'0 0.0
2018-Jun-22 13:00N 37°26' E 025°26'1 1.1
2018-Jun-22 12:30N 37°26' E 025°25'1 1.0
2018-Jun-22 11:59N 37°26' E 025°26'0 0.1
2018-Jun-22 11:30N 37°26' E 025°26'0 0.1
2018-Jun-22 10:59N 37°26' E 025°26'1 1.1
2018-Jun-22 10:30N 37°26' E 025°25'1 1.1
2018-Jun-22 09:59N 37°26' E 025°26'0 0.0
2018-Jun-22 09:29N 37°26' E 025°26'1 3.1
2018-Jun-22 09:00N 37°26' E 025°28'1 2.4
2018-Jun-22 08:30N 37°27' E 025°29'0 0.0
2018-Jun-22 08:00N 37°27' E 025°29'0 0.0
2018-Jun-22 07:29N 37°27' E 025°29'0 0.0
2018-Jun-22 07:00N 37°27' E 025°29'0 0.1
2018-Jun-22 06:30N 37°27' E 025°29'0 0.0
2018-Jun-22 06:00N 37°27' E 025°29'1 1.0
2018-Jun-22 05:27N 37°26' E 025°29'0 0.0
2018-Jun-22 04:53N 37°26' E 025°29'0 0.0
2018-Jun-22 04:30N 37°26' E 025°29'3 5.5
2018-Jun-22 03:59N 37°26' E 025°25'3 6.5
2018-Jun-22 03:30N 37°24' E 025°22'2 0.2
2018-Jun-21 16:24N 37°25' E 025°20'3 8.2
2018-Jun-21 16:00N 37°25' E 025°24'5 9.1
2018-Jun-21 15:29N 37°26' E 025°29'0 0.0
2018-Jun-21 15:00N 37°26' E 025°29'0 0.0
2018-Jun-21 14:28N 37°26' E 025°29'0 0.0
2018-Jun-21 14:00N 37°26' E 025°29'0 0.0
2018-Jun-21 13:30N 37°26' E 025°29'0 0.9
2018-Jun-21 13:00N 37°27' E 025°29'0 0.7
2018-Jun-21 12:30N 37°27' E 025°29'0 0.0
2018-Jun-21 07:58N 37°27' E 025°29'2 5.0
2018-Jun-21 07:30N 37°26' E 025°26'2 3.2
2018-Jun-21 06:46N 37°27' E 025°29'0 0.0
2018-Jun-21 06:27N 37°27' E 025°29'0 0.0
2018-Jun-21 05:53N 37°27' E 025°29'0 0.0
2018-Jun-21 05:17N 37°27' E 025°29'0 0.0
2018-Jun-21 04:54N 37°27' E 025°29'0 0.0
2018-Jun-21 04:30N 37°27' E 025°29'3 4.9
2018-Jun-21 03:53N 37°26' E 025°26'512.1
2018-Jun-21 03:30N 37°24' E 025°20'1 0.1
2018-Jun-20 16:57N 37°25' E 025°20'0 0.1
2018-Jun-20 16:30N 37°25' E 025°19'5 9.4
2018-Jun-20 16:01N 37°26' E 025°25'3 5.8
2018-Jun-20 15:26N 37°27' E 025°29'0 0.0
2018-Jun-20 14:52N 37°27' E 025°29'0 0.0
2018-Jun-20 14:30N 37°27' E 025°29'0 0.0
2018-Jun-20 13:56N 37°27' E 025°29'0 0.0
2018-Jun-20 13:23N 37°27' E 025°29'0 0.0
2018-Jun-20 12:59N 37°27' E 025°29'0 0.0
2018-Jun-20 12:26N 37°27' E 025°29'0 0.0
2018-Jun-20 11:59N 37°27' E 025°29'0 0.0
2018-Jun-20 11:30N 37°27' E 025°29'0 0.0
2018-Jun-20 10:58N 37°27' E 025°29'2 4.4
2018-Jun-20 10:27N 37°26' E 025°27'2 5.2
2018-Jun-20 10:00N 37°27' E 025°29'0 0.0
2018-Jun-20 09:30N 37°27' E 025°29'0 0.0
2018-Jun-20 09:00N 37°27' E 025°29'0 0.0
2018-Jun-20 08:30N 37°27' E 025°29'0 0.0
2018-Jun-20 08:00N 37°27' E 025°29'0 0.0
2018-Jun-20 07:30N 37°27' E 025°29'0 0.0
2018-Jun-20 07:00N 37°27' E 025°29'0 0.0
2018-Jun-20 06:30N 37°27' E 025°29'0 0.0
2018-Jun-20 06:00N 37°27' E 025°29'0 0.0
2018-Jun-20 05:30N 37°27' E 025°29'0 0.0
2018-Jun-20 05:00N 37°27' E 025°29'0 0.2
2018-Jun-20 04:30N 37°27' E 025°29'3 6.4
2018-Jun-20 04:00N 37°26' E 025°25'2 4.3
2018-Jun-20 03:30N 37°25' E 025°24'3 0.3
2018-Jun-19 16:31N 37°25' E 025°20'0 0.0
2018-Jun-19 16:30N 37°25' E 025°20'3 5.5
2018-Jun-19 16:00N 37°24' E 025°23'510.4
2018-Jun-19 15:30N 37°26' E 025°29'0 0.4
2018-Jun-19 14:59N 37°27' E 025°29'0 0.0
2018-Jun-19 14:30N 37°27' E 025°29'0 0.0
2018-Jun-19 14:00N 37°27' E 025°29'0 0.0
2018-Jun-19 13:30N 37°27' E 025°29'0 0.0
2018-Jun-19 13:00N 37°27' E 025°29'0 0.4
2018-Jun-19 12:30N 37°26' E 025°29'0 0.0
2018-Jun-19 12:00N 37°26' E 025°29'0 0.4
2018-Jun-19 11:30N 37°27' E 025°29'0 0.9
2018-Jun-19 11:00N 37°27' E 025°30'0 0.0
2018-Jun-19 10:30N 37°27' E 025°30'0 0.0
2018-Jun-19 10:00N 37°27' E 025°30'0 0.0
2018-Jun-19 09:30N 37°27' E 025°30'3 3.9
2018-Jun-19 08:51N 37°26' E 025°27'2 4.2
2018-Jun-19 08:27N 37°26' E 025°29'1 1.5
2018-Jun-19 07:58N 37°27' E 025°29'0 0.0
2018-Jun-19 07:30N 37°27' E 025°29'0 0.0
2018-Jun-19 06:58N 37°27' E 025°29'0 0.0
2018-Jun-19 06:25N 37°27' E 025°29'0 0.0
2018-Jun-19 06:00N 37°27' E 025°29'0 0.0
2018-Jun-19 05:29N 37°27' E 025°29'0 0.0
2018-Jun-19 05:00N 37°27' E 025°29'0 0.0
2018-Jun-19 04:28N 37°27' E 025°29'3 6.8
2018-Jun-19 04:00N 37°26' E 025°25'2 4.9
2018-Jun-19 03:30N 37°24' E 025°23'3 0.3
2018-Jun-18 16:31N 37°25' E 025°20'0 0.0
2018-Jun-18 16:30N 37°25' E 025°20'4 9.1
2018-Jun-18 16:00N 37°25' E 025°25'4 4.2
2018-Jun-18 15:09N 37°27' E 025°29'0 0.0
2018-Jun-18 14:59N 37°27' E 025°29'0 0.0
2018-Jun-18 14:27N 37°27' E 025°29'0 0.0
2018-Jun-18 13:50N 37°27' E 025°29'0 0.0
2018-Jun-18 13:25N 37°27' E 025°29'0 0.0
2018-Jun-18 13:00N 37°27' E 025°29'0 0.0
2018-Jun-18 12:30N 37°27' E 025°29'2 3.7
2018-Jun-18 11:58N 37°26' E 025°27'1 2.5
2018-Jun-18 11:30N 37°26' E 025°25'0 0.0
2018-Jun-18 11:00N 37°26' E 025°25'0 0.0
2018-Jun-18 10:30N 37°26' E 025°25'0 0.0
2018-Jun-18 09:59N 37°26' E 025°25'0 0.0
2018-Jun-18 09:31N 37°26' E 025°25'3 4.8
2018-Jun-18 08:51N 37°27' E 025°29'0 0.0
2018-Jun-18 08:29N 37°27' E 025°29'0 0.0
2018-Jun-18 07:57N 37°27' E 025°29'0 0.0
2018-Jun-18 07:23N 37°27' E 025°29'0 0.9
2018-Jun-18 07:00N 37°27' E 025°30'0 0.0
2018-Jun-18 06:30N 37°27' E 025°30'0 0.0
2018-Jun-18 06:00N 37°27' E 025°30'0 0.0
2018-Jun-18 05:30N 37°27' E 025°30'0 0.1
2018-Jun-18 05:01N 37°27' E 025°30'3 6.5
2018-Jun-18 04:30N 37°26' E 025°26'5 9.6
2018-Jun-18 03:59N 37°25' E 025°20'0 0.0
2018-Jun-18 03:30N 37°25' E 025°20'0 0.0
2018-Jun-17 16:53N 37°25' E 025°20'2 6.1
2018-Jun-17 16:30N 37°24' E 025°22'4 8.9
2018-Jun-17 16:00N 37°26' E 025°27'2 3.5
2018-Jun-17 15:30N 37°27' E 025°29'0 0.0
2018-Jun-17 15:00N 37°27' E 025°29'0 0.0
2018-Jun-17 14:30N 37°27' E 025°29'0 0.0
2018-Jun-17 14:00N 37°27' E 025°29'0 0.0
2018-Jun-17 13:30N 37°27' E 025°29'0 0.0
2018-Jun-17 13:00N 37°27' E 025°29'0 0.0
2018-Jun-17 12:30N 37°27' E 025°29'0 0.0
2018-Jun-17 12:00N 37°27' E 025°29'2 3.1
2018-Jun-17 11:20N 37°26' E 025°27'1 2.8
2018-Jun-17 11:00N 37°26' E 025°28'1 2.4
2018-Jun-17 10:30N 37°27' E 025°29'0 0.0
2018-Jun-17 10:00N 37°27' E 025°29'0 0.0
2018-Jun-17 09:30N 37°27' E 025°29'0 0.0
2018-Jun-17 09:00N 37°27' E 025°29'0 0.0
2018-Jun-17 08:30N 37°27' E 025°29'0 0.2
2018-Jun-17 08:00N 37°27' E 025°29'3 6.2
2018-Jun-17 07:30N 37°26' E 025°26'3 6.2
2018-Jun-17 07:00N 37°27' E 025°29'0 0.0
2018-Jun-17 06:30N 37°27' E 025°29'0 0.0
2018-Jun-17 06:00N 37°27' E 025°29'0 0.0
2018-Jun-17 05:30N 37°27' E 025°29'0 0.0
2018-Jun-17 04:25N 37°27' E 025°29'3 7.4
2018-Jun-17 03:59N 37°26' E 025°25'3 5.5
2018-Jun-17 03:26N 37°24' E 025°22'3 0.2
2018-Jun-16 16:28N 37°25' E 025°20'2 4.5
2018-Jun-16 16:00N 37°24' E 025°22'5 9.7
2018-Jun-16 15:30N 37°26' E 025°27'2 0.8
2018-Jun-16 13:27N 37°27' E 025°29'0 0.0
2018-Jun-16 11:38N 37°27' E 025°29'2 9.0
2018-Jun-16 11:26N 37°26' E 025°27'2 4.0
2018-Jun-16 11:00N 37°26' E 025°29'0 0.7
2018-Jun-16 10:25N 37°27' E 025°29'0 0.8
2018-Jun-16 10:00N 37°27' E 025°29'5 9.9
2018-Jun-16 09:30N 37°31' E 025°26'5 8.6
2018-Jun-16 08:54N 37°26' E 025°26'3 5.1
2018-Jun-16 08:22N 37°27' E 025°29'1 1.6
2018-Jun-16 07:57N 37°28' E 025°30'3 4.4
2018-Jun-16 07:19N 37°30' E 025°31'3 9.5
2018-Jun-16 07:00N 37°28' E 025°30'1 0.9
2018-Jun-16 06:25N 37°27' E 025°30'0 0.0
2018-Jun-16 06:00N 37°27' E 025°30'0 0.0
2018-Jun-16 05:21N 37°27' E 025°30'0 0.0
2018-Jun-16 04:56N 37°27' E 025°30'0 0.1
2018-Jun-16 04:30N 37°27' E 025°30'4 6.9
2018-Jun-16 04:00N 37°26' E 025°25'3 5.3
2018-Jun-16 03:30N 37°24' E 025°23'3 0.3
2018-Jun-15 17:02N 37°25' E 025°20'0 0.0
2018-Jun-15 17:00N 37°25' E 025°20'2 4.8
2018-Jun-15 16:30N 37°24' E 025°22'611.5
2018-Jun-15 15:57N 37°27' E 025°30'0 0.2
2018-Jun-15 15:26N 37°27' E 025°30'0 0.1
2018-Jun-15 15:00N 37°27' E 025°30'0 0.1
2018-Jun-15 14:30N 37°27' E 025°30'0 0.1
2018-Jun-15 14:00N 37°27' E 025°30'0 0.5
2018-Jun-15 13:24N 37°27' E 025°29'0 0.0
2018-Jun-15 11:50N 37°27' E 025°29'2 6.0
2018-Jun-15 11:29N 37°26' E 025°27'2 4.2
2018-Jun-15 11:00N 37°27' E 025°29'0 0.0
2018-Jun-15 10:29N 37°27' E 025°29'0 0.0
2018-Jun-15 10:00N 37°27' E 025°29'0 0.0
2018-Jun-15 09:30N 37°27' E 025°29'0 0.0
2018-Jun-15 08:58N 37°27' E 025°29'0 0.0
2018-Jun-15 08:27N 37°27' E 025°29'0 0.0
2018-Jun-15 08:00N 37°27' E 025°29'2 4.7
2018-Jun-15 07:29N 37°26' E 025°26'2 4.9
2018-Jun-15 07:00N 37°27' E 025°29'0 0.7
2018-Jun-15 06:24N 37°27' E 025°30'0 0.1
2018-Jun-15 06:00N 37°27' E 025°30'0 0.8
2018-Jun-15 05:30N 37°27' E 025°29'0 0.0
2018-Jun-15 04:54N 37°27' E 025°29'0 0.0
2018-Jun-15 04:30N 37°27' E 025°29'3 5.9
2018-Jun-15 04:00N 37°26' E 025°26'2 4.8
2018-Jun-15 03:30N 37°25' E 025°24'3 0.3
2018-Jun-14 16:31N 37°25' E 025°20'0 0.0
2018-Jun-14 16:30N 37°25' E 025°20'3 6.6
2018-Jun-14 16:00N 37°25' E 025°24'5 9.7
2018-Jun-14 15:30N 37°26' E 025°29'0 0.9
2018-Jun-14 15:00N 37°27' E 025°29'0 0.5
2018-Jun-14 14:30N 37°27' E 025°30'0 0.2
2018-Jun-14 14:00N 37°27' E 025°30'0 0.0
2018-Jun-14 13:30N 37°27' E 025°30'0 0.1
2018-Jun-14 13:00N 37°27' E 025°30'0 0.0
2018-Jun-14 12:27N 37°27' E 025°30'0 0.0
2018-Jun-14 12:00N 37°27' E 025°30'0 0.0
2018-Jun-14 11:30N 37°27' E 025°30'0 0.0
2018-Jun-14 11:00N 37°27' E 025°30'0 0.0
2018-Jun-14 10:30N 37°27' E 025°30'0 0.1
2018-Jun-14 04:27N 37°27' E 025°29'3 7.1
2018-Jun-14 04:00N 37°26' E 025°25'3 6.2
2018-Jun-14 03:30N 37°24' E 025°22'2 0.2
2018-Jun-13 16:38N 37°25' E 025°20'0 0.0
2018-Jun-13 16:30N 37°25' E 025°20'4 8.2
2018-Jun-13 16:00N 37°25' E 025°25'  
Track history (hours):
 
Tides and Currents Weather Stations Pressure Air Temp Water Temp Dewpoint Dewpoint Depression Visibility Wind Speed Wind Dir Waves Ship Positions

Seaguardian 12 Twin

Last reported at 2018-Jun-23 15:47 UTC. Time now 2018-Jul-17 15:10 UTC.
Position N 37°34' E 024°46'.
Warning: this ship's position is 23 days out of date.

Length 11 m; draft 1.8 m.

Type: Pollution control. MMSI: 239869100.

Date/timePositionNaut miles runAvg speedWind from/ knotsBaromVisibWave heightAir tempDewpointWater temp
2018-Jun-23 15:47N 37°34' E 024°46'1614.3
2018-Jun-23 14:41N 37°29' E 025°05'313.8
2018-Jun-23 14:30N 37°28' E 025°08'713.7
2018-Jun-23 14:00N 37°26' E 025°16'3 6.2
2018-Jun-23 13:30N 37°25' E 025°19'0 0.0
2018-Jun-23 09:24N 37°25' E 025°20'0 0.1
2018-Jun-23 09:00N 37°25' E 025°19'4 8.1
2018-Jun-23 08:30N 37°25' E 025°25'2 3.2
2018-Jun-23 08:00N 37°26' E 025°26'0 0.0
2018-Jun-23 07:29N 37°26' E 025°26'0 0.0
2018-Jun-23 06:59N 37°26' E 025°26'0 0.0
2018-Jun-23 06:30N 37°26' E 025°26'0 0.0
2018-Jun-23 05:59N 37°26' E 025°26'0 0.0
2018-Jun-23 05:29N 37°26' E 025°26'0 0.0
2018-Jun-23 05:00N 37°26' E 025°26'0 0.0
2018-Jun-23 04:30N 37°26' E 025°26'1 1.0
2018-Jun-23 04:00N 37°26' E 025°25'4 7.7
2018-Jun-23 03:30N 37°24' E 025°21'2 0.2
2018-Jun-22 16:35N 37°25' E 025°20'0 0.1
2018-Jun-22 16:30N 37°25' E 025°20'5 9.1
2018-Jun-22 16:00N 37°26' E 025°25'1 1.6
2018-Jun-22 15:26N 37°26' E 025°26'0 0.0
2018-Jun-22 14:57N 37°26' E 025°26'0 0.0
2018-Jun-22 14:29N 37°26' E 025°26'0 0.0
2018-Jun-22 13:53N 37°26' E 025°26'0 0.0
2018-Jun-22 13:28N 37°26' E 025°26'0 0.0
2018-Jun-22 13:00N 37°26' E 025°26'1 1.1
2018-Jun-22 12:30N 37°26' E 025°25'1 1.0
2018-Jun-22 11:59N 37°26' E 025°26'0 0.1
2018-Jun-22 11:30N 37°26' E 025°26'0 0.1
2018-Jun-22 10:59N 37°26' E 025°26'1 1.1
2018-Jun-22 10:30N 37°26' E 025°25'1 1.1
2018-Jun-22 09:59N 37°26' E 025°26'0 0.0
2018-Jun-22 09:29N 37°26' E 025°26'1 3.1
2018-Jun-22 09:00N 37°26' E 025°28'1 2.4
2018-Jun-22 08:30N 37°27' E 025°29'0 0.0
2018-Jun-22 08:00N 37°27' E 025°29'0 0.0
2018-Jun-22 07:29N 37°27' E 025°29'0 0.0
2018-Jun-22 07:00N 37°27' E 025°29'0 0.1
2018-Jun-22 06:30N 37°27' E 025°29'0 0.0
2018-Jun-22 06:00N 37°27' E 025°29'1 1.0
2018-Jun-22 05:27N 37°26' E 025°29'0 0.0
2018-Jun-22 04:53N 37°26' E 025°29'0 0.0
2018-Jun-22 04:30N 37°26' E 025°29'3 5.5
2018-Jun-22 03:59N 37°26' E 025°25'3 6.5
2018-Jun-22 03:30N 37°24' E 025°22'2 0.2
2018-Jun-21 16:24N 37°25' E 025°20'3 8.2
2018-Jun-21 16:00N 37°25' E 025°24'5 9.1
2018-Jun-21 15:29N 37°26' E 025°29'0 0.0
2018-Jun-21 15:00N 37°26' E 025°29'0 0.0
2018-Jun-21 14:28N 37°26' E 025°29'0 0.0
2018-Jun-21 14:00N 37°26' E 025°29'0 0.0
2018-Jun-21 13:30N 37°26' E 025°29'0 0.9
2018-Jun-21 13:00N 37°27' E 025°29'0 0.7
2018-Jun-21 12:30N 37°27' E 025°29'0 0.0
2018-Jun-21 07:58N 37°27' E 025°29'2 5.0
2018-Jun-21 07:30N 37°26' E 025°26'2 3.2
2018-Jun-21 06:46N 37°27' E 025°29'0 0.0
2018-Jun-21 06:27N 37°27' E 025°29'0 0.0
2018-Jun-21 05:53N 37°27' E 025°29'0 0.0
2018-Jun-21 05:17N 37°27' E 025°29'0 0.0
2018-Jun-21 04:54N 37°27' E 025°29'0 0.0
2018-Jun-21 04:30N 37°27' E 025°29'3 4.9
2018-Jun-21 03:53N 37°26' E 025°26'512.1
2018-Jun-21 03:30N 37°24' E 025°20'1 0.1
2018-Jun-20 16:57N 37°25' E 025°20'0 0.1
2018-Jun-20 16:30N 37°25' E 025°19'5 9.4
2018-Jun-20 16:01N 37°26' E 025°25'3 5.8
2018-Jun-20 15:26N 37°27' E 025°29'0 0.0
2018-Jun-20 14:52N 37°27' E 025°29'0 0.0
2018-Jun-20 14:30N 37°27' E 025°29'0 0.0
2018-Jun-20 13:56N 37°27' E 025°29'0 0.0
2018-Jun-20 13:23N 37°27' E 025°29'0 0.0
2018-Jun-20 12:59N 37°27' E 025°29'0 0.0
2018-Jun-20 12:26N 37°27' E 025°29'0 0.0
2018-Jun-20 11:59N 37°27' E 025°29'0 0.0
2018-Jun-20 11:30N 37°27' E 025°29'0 0.0
2018-Jun-20 10:58N 37°27' E 025°29'2 4.4
2018-Jun-20 10:27N 37°26' E 025°27'2 5.2
2018-Jun-20 10:00N 37°27' E 025°29'0 0.0
2018-Jun-20 09:30N 37°27' E 025°29'0 0.0
2018-Jun-20 09:00N 37°27' E 025°29'0 0.0
2018-Jun-20 08:30N 37°27' E 025°29'0 0.0
2018-Jun-20 08:00N 37°27' E 025°29'0 0.0
2018-Jun-20 07:30N 37°27' E 025°29'0 0.0
2018-Jun-20 07:00N 37°27' E 025°29'0 0.0
2018-Jun-20 06:30N 37°27' E 025°29'0 0.0
2018-Jun-20 06:00N 37°27' E 025°29'0 0.0
2018-Jun-20 05:30N 37°27' E 025°29'0 0.0
2018-Jun-20 05:00N 37°27' E 025°29'0 0.2
2018-Jun-20 04:30N 37°27' E 025°29'3 6.4
2018-Jun-20 04:00N 37°26' E 025°25'2 4.3
2018-Jun-20 03:30N 37°25' E 025°24'3 0.3
2018-Jun-19 16:31N 37°25' E 025°20'0 0.0
2018-Jun-19 16:30N 37°25' E 025°20'3 5.5
2018-Jun-19 16:00N 37°24' E 025°23'510.4
2018-Jun-19 15:30N 37°26' E 025°29'0 0.4
2018-Jun-19 14:59N 37°27' E 025°29'0 0.0
2018-Jun-19 14:30N 37°27' E 025°29'0 0.0
2018-Jun-19 14:00N 37°27' E 025°29'0 0.0
2018-Jun-19 13:30N 37°27' E 025°29'0 0.0
2018-Jun-19 13:00N 37°27' E 025°29'0 0.4
2018-Jun-19 12:30N 37°26' E 025°29'0 0.0
2018-Jun-19 12:00N 37°26' E 025°29'0 0.4
2018-Jun-19 11:30N 37°27' E 025°29'0 0.9
2018-Jun-19 11:00N 37°27' E 025°30'0 0.0
2018-Jun-19 10:30N 37°27' E 025°30'0 0.0
2018-Jun-19 10:00N 37°27' E 025°30'0 0.0
2018-Jun-19 09:30N 37°27' E 025°30'3 3.9
2018-Jun-19 08:51N 37°26' E 025°27'2 4.2
2018-Jun-19 08:27N 37°26' E 025°29'1 1.5
2018-Jun-19 07:58N 37°27' E 025°29'0 0.0
2018-Jun-19 07:30N 37°27' E 025°29'0 0.0
2018-Jun-19 06:58N 37°27' E 025°29'0 0.0
2018-Jun-19 06:25N 37°27' E 025°29'0 0.0
2018-Jun-19 06:00N 37°27' E 025°29'0 0.0
2018-Jun-19 05:29N 37°27' E 025°29'0 0.0
2018-Jun-19 05:00N 37°27' E 025°29'0 0.0
2018-Jun-19 04:28N 37°27' E 025°29'3 6.8
2018-Jun-19 04:00N 37°26' E 025°25'2 4.9
2018-Jun-19 03:30N 37°24' E 025°23'3 0.3
2018-Jun-18 16:31N 37°25' E 025°20'0 0.0
2018-Jun-18 16:30N 37°25' E 025°20'4 9.1
2018-Jun-18 16:00N 37°25' E 025°25'4 4.2
2018-Jun-18 15:09N 37°27' E 025°29'0 0.0
2018-Jun-18 14:59N 37°27' E 025°29'0 0.0
2018-Jun-18 14:27N 37°27' E 025°29'0 0.0
2018-Jun-18 13:50N 37°27' E 025°29'0 0.0
2018-Jun-18 13:25N 37°27' E 025°29'0 0.0
2018-Jun-18 13:00N 37°27' E 025°29'0 0.0
2018-Jun-18 12:30N 37°27' E 025°29'2 3.7
2018-Jun-18 11:58N 37°26' E 025°27'1 2.5
2018-Jun-18 11:30N 37°26' E 025°25'0 0.0
2018-Jun-18 11:00N 37°26' E 025°25'0 0.0
2018-Jun-18 10:30N 37°26' E 025°25'0 0.0
2018-Jun-18 09:59N 37°26' E 025°25'0 0.0
2018-Jun-18 09:31N 37°26' E 025°25'3 4.8
2018-Jun-18 08:51N 37°27' E 025°29'0 0.0
2018-Jun-18 08:29N 37°27' E 025°29'0 0.0
2018-Jun-18 07:57N 37°27' E 025°29'0 0.0
2018-Jun-18 07:23N 37°27' E 025°29'0 0.9
2018-Jun-18 07:00N 37°27' E 025°30'0 0.0
2018-Jun-18 06:30N 37°27' E 025°30'0 0.0
2018-Jun-18 06:00N 37°27' E 025°30'0 0.0
2018-Jun-18 05:30N 37°27' E 025°30'0 0.1
2018-Jun-18 05:01N 37°27' E 025°30'3 6.5
2018-Jun-18 04:30N 37°26' E 025°26'5 9.6
2018-Jun-18 03:59N 37°25' E 025°20'0 0.0
2018-Jun-18 03:30N 37°25' E 025°20'0 0.0
2018-Jun-17 16:53N 37°25' E 025°20'2 6.1
2018-Jun-17 16:30N 37°24' E 025°22'4 8.9
2018-Jun-17 16:00N 37°26' E 025°27'2 3.5
2018-Jun-17 15:30N 37°27' E 025°29'0 0.0
2018-Jun-17 15:00N 37°27' E 025°29'0 0.0
2018-Jun-17 14:30N 37°27' E 025°29'0 0.0
2018-Jun-17 14:00N 37°27' E 025°29'0 0.0
2018-Jun-17 13:30N 37°27' E 025°29'0 0.0
2018-Jun-17 13:00N 37°27' E 025°29'0 0.0
2018-Jun-17 12:30N 37°27' E 025°29'0 0.0
2018-Jun-17 12:00N 37°27' E 025°29'2 3.1
2018-Jun-17 11:20N 37°26' E 025°27'1 2.8
2018-Jun-17 11:00N 37°26' E 025°28'1 2.4
2018-Jun-17 10:30N 37°27' E 025°29'0 0.0
2018-Jun-17 10:00N 37°27' E 025°29'0 0.0
2018-Jun-17 09:30N 37°27' E 025°29'0 0.0
2018-Jun-17 09:00N 37°27' E 025°29'0 0.0
2018-Jun-17 08:30N 37°27' E 025°29'0 0.2
2018-Jun-17 08:00N 37°27' E 025°29'3 6.2
2018-Jun-17 07:30N 37°26' E 025°26'3 6.2
2018-Jun-17 07:00N 37°27' E 025°29'0 0.0
2018-Jun-17 06:30N 37°27' E 025°29'0 0.0
2018-Jun-17 06:00N 37°27' E 025°29'0 0.0
2018-Jun-17 05:30N 37°27' E 025°29'0 0.0
2018-Jun-17 04:25N 37°27' E 025°29'3 7.4
2018-Jun-17 03:59N 37°26' E 025°25'3 5.5
2018-Jun-17 03:26N 37°24' E 025°22'3 0.2
2018-Jun-16 16:28N 37°25' E 025°20'2 4.5
2018-Jun-16 16:00N 37°24' E 025°22'5 9.7
2018-Jun-16 15:30N 37°26' E 025°27'2 0.8
2018-Jun-16 13:27N 37°27' E 025°29'0 0.0
2018-Jun-16 11:38N 37°27' E 025°29'2 9.0
2018-Jun-16 11:26N 37°26' E 025°27'2 4.0
2018-Jun-16 11:00N 37°26' E 025°29'0 0.7
2018-Jun-16 10:25N 37°27' E 025°29'0 0.8
2018-Jun-16 10:00N 37°27' E 025°29'5 9.9
2018-Jun-16 09:30N 37°31' E 025°26'5 8.6
2018-Jun-16 08:54N 37°26' E 025°26'3 5.1
2018-Jun-16 08:22N 37°27' E 025°29'1 1.6
2018-Jun-16 07:57N 37°28' E 025°30'3 4.4
2018-Jun-16 07:19N 37°30' E 025°31'3 9.5
2018-Jun-16 07:00N 37°28' E 025°30'1 0.9
2018-Jun-16 06:25N 37°27' E 025°30'0 0.0
2018-Jun-16 06:00N 37°27' E 025°30'0 0.0
2018-Jun-16 05:21N 37°27' E 025°30'0 0.0
2018-Jun-16 04:56N 37°27' E 025°30'0 0.1
2018-Jun-16 04:30N 37°27' E 025°30'4 6.9
2018-Jun-16 04:00N 37°26' E 025°25'3 5.3
2018-Jun-16 03:30N 37°24' E 025°23'3 0.3
2018-Jun-15 17:02N 37°25' E 025°20'0 0.0
2018-Jun-15 17:00N 37°25' E 025°20'2 4.8
2018-Jun-15 16:30N 37°24' E 025°22'611.5
2018-Jun-15 15:57N 37°27' E 025°30'0 0.2
2018-Jun-15 15:26N 37°27' E 025°30'0 0.1
2018-Jun-15 15:00N 37°27' E 025°30'0 0.1
2018-Jun-15 14:30N 37°27' E 025°30'0 0.1
2018-Jun-15 14:00N 37°27' E 025°30'0 0.5
2018-Jun-15 13:24N 37°27' E 025°29'0 0.0
2018-Jun-15 11:50N 37°27' E 025°29'2 6.0
2018-Jun-15 11:29N 37°26' E 025°27'2 4.2
2018-Jun-15 11:00N 37°27' E 025°29'0 0.0
2018-Jun-15 10:29N 37°27' E 025°29'0 0.0
2018-Jun-15 10:00N 37°27' E 025°29'0 0.0
2018-Jun-15 09:30N 37°27' E 025°29'0 0.0
2018-Jun-15 08:58N 37°27' E 025°29'0 0.0
2018-Jun-15 08:27N 37°27' E 025°29'0 0.0
2018-Jun-15 08:00N 37°27' E 025°29'2 4.7
2018-Jun-15 07:29N 37°26' E 025°26'2 4.9
2018-Jun-15 07:00N 37°27' E 025°29'0 0.7
2018-Jun-15 06:24N 37°27' E 025°30'0 0.1
2018-Jun-15 06:00N 37°27' E 025°30'0 0.8
2018-Jun-15 05:30N 37°27' E 025°29'0 0.0
2018-Jun-15 04:54N 37°27' E 025°29'0 0.0
2018-Jun-15 04:30N 37°27' E 025°29'3 5.9
2018-Jun-15 04:00N 37°26' E 025°26'2 4.8
2018-Jun-15 03:30N 37°25' E 025°24'3 0.3
2018-Jun-14 16:31N 37°25' E 025°20'0 0.0
2018-Jun-14 16:30N 37°25' E 025°20'3 6.6
2018-Jun-14 16:00N 37°25' E 025°24'5 9.7
2018-Jun-14 15:30N 37°26' E 025°29'0 0.9
2018-Jun-14 15:00N 37°27' E 025°29'0 0.5
2018-Jun-14 14:30N 37°27' E 025°30'0 0.2
2018-Jun-14 14:00N 37°27' E 025°30'0 0.0
2018-Jun-14 13:30N 37°27' E 025°30'0 0.1
2018-Jun-14 13:00N 37°27' E 025°30'0 0.0
2018-Jun-14 12:27N 37°27' E 025°30'0 0.0
2018-Jun-14 12:00N 37°27' E 025°30'0 0.0
2018-Jun-14 11:30N 37°27' E 025°30'0 0.0
2018-Jun-14 11:00N 37°27' E 025°30'0 0.0
2018-Jun-14 10:30N 37°27' E 025°30'0 0.1
2018-Jun-14 04:27N 37°27' E 025°29'3 7.1
2018-Jun-14 04:00N 37°26' E 025°25'3 6.2
2018-Jun-14 03:30N 37°24' E 025°22'2 0.2
2018-Jun-13 16:38N 37°25' E 025°20'0 0.0
2018-Jun-13 16:30N 37°25' E 025°20'4 8.2
2018-Jun-13 16:00N 37°25' E 025°25'  

Dump ship's entire track history